Sky Ever — DSQX9 — position and weather

sailwx.info

Track history (hours):
 
Tides and Currents Weather Stations Pressure Air Temp Water Temp Dewpoint Dewpoint Depression Visibility Wind Speed Wind Dir Waves Ship Positions

Sky Ever

Last reported at 2016-May-12 10:31 UTC. Time now 2016-May-28 05:59 UTC.
Position N 34°34' E 134°50'.
Warning: this ship's position is 15 days out of date.

Length 76 m; draft 3 m.

Type: Cargo ship. MMSI: 441751000.

Date/timePositionNaut miles runAvg speedWind from/ knotsBaromVisibWave heightAir tempDewpointWater temp
2016-May-12 10:31N 34°34' E 134°50'10 7.1
2016-May-12 09:08N 34°37' E 135°02'4 6.8
2016-May-12 08:33N 34°36' E 135°06'9 8.9
2016-May-12 07:34N 34°37' E 135°17'4 0.3
2016-May-11 18:28N 34°40' E 135°20'0 0.0
2016-May-11 17:28N 34°40' E 135°20'0 0.0
2016-May-11 16:28N 34°40' E 135°20'0 0.0
2016-May-11 15:28N 34°40' E 135°20'0 0.0
2016-May-11 14:28N 34°40' E 135°20'0 0.0
2016-May-11 13:22N 34°40' E 135°20'0 0.0
2016-May-11 12:28N 34°40' E 135°20'0 0.1
2016-May-11 11:28N 34°40' E 135°20'7 7.8
2016-May-11 10:33N 34°36' E 135°13'10 9.5
2016-May-11 09:33N 34°37' E 135°01'  
Track history (hours):
 
Tides and Currents Weather Stations Pressure Air Temp Water Temp Dewpoint Dewpoint Depression Visibility Wind Speed Wind Dir Waves Ship Positions

Sky Ever

Last reported at 2016-May-12 10:31 UTC. Time now 2016-May-28 05:59 UTC.
Position N 34°34' E 134°50'.
Warning: this ship's position is 15 days out of date.

Length 76 m; draft 3 m.

Type: Cargo ship. MMSI: 441751000.

Date/timePositionNaut miles runAvg speedWind from/ knotsBaromVisibWave heightAir tempDewpointWater temp
2016-May-12 10:31N 34°34' E 134°50'10 7.1
2016-May-12 09:08N 34°37' E 135°02'4 6.8
2016-May-12 08:33N 34°36' E 135°06'9 8.9
2016-May-12 07:34N 34°37' E 135°17'4 0.3
2016-May-11 18:28N 34°40' E 135°20'0 0.0
2016-May-11 17:28N 34°40' E 135°20'0 0.0
2016-May-11 16:28N 34°40' E 135°20'0 0.0
2016-May-11 15:28N 34°40' E 135°20'0 0.0
2016-May-11 14:28N 34°40' E 135°20'0 0.0
2016-May-11 13:22N 34°40' E 135°20'0 0.0
2016-May-11 12:28N 34°40' E 135°20'0 0.1
2016-May-11 11:28N 34°40' E 135°20'7 7.8
2016-May-11 10:33N 34°36' E 135°13'10 9.5
2016-May-11 09:33N 34°37' E 135°01'  

Dump ship's entire track history